Breckenridge, CO (80424)

6:31 AM MDT on March 24, 2017 (GMT -0600)
MMIHC2 | | Change Station
Active Advisory: Winter Weather Statement Active Notice: Public Information Statement

Elev 10594 ft 39.44 °N, 105.91 °W | Updated 1 hour ago

Overcast
Overcast
28.0 °F
Feels Like 28.0 °F
N
-
Wind Variable Wind from North

Today
High -- | Low -- °F
--% Chance of Precip.
Yesterday
High -- | Low -- °F
Precip. -- in
Pressure 29.93 in
Visibility 10.0 miles
Clouds Few 2500 ft
Scattered Clouds 3000 ft
Dew Point Not available.
Humidity Not available.
Rainfall 0.02 in
Snow Depth Not available.
7:00 AM 7:20 PM
Waning Crescent, 15% visible
SPECI KLXV 241203Z AUTO 35013G23KT 10SM FEW025 SCT030 M03/M07 A2993 RMK AO2 T10281072
Pressure 29.93 in
Visibility 10.0 miles
Clouds Few 2500 ft
Scattered Clouds 3000 ft
Dew Point Not available.
Humidity Not available.
Rainfall 0.02 in
Snow Depth Not available.
7:00 AM 7:20 PM
Waning Crescent, 15% visible
SPECI KLXV 241203Z AUTO 35013G23KT 10SM FEW025 SCT030 M03/M07 A2993 RMK AO2 T10281072

Get Your Daily Forecast Email!

Thanks for signing up!

Be on the lookout for a verification email in your inbox.

You'll start receiving severe weather alerts in your inbox..

×

10-Day Weather Forecast

Almanac

Astronomy

Mar. 24, 2017 Rise Set
Actual Time
Civil Twilight
Nautical Twilight
Astronomical Twilight
Moon
Length of Visible Light
Length of Day
Tomorrow will be .
, % of the Moon is Illuminated

Today's Extremes

State Highs State Lows

Community

WunderPhotos

Upload Photos

1,962,540 photos uploaded!

WunderBlog® & News

Nearby

Air Quality

  Air Quality AQ Index Pollutant
Not available.

Snow Depth

Station Depth Elevation

Earthquake Activity

City Distance Mag. Time & Date
Minimum magnitude displayed is 2.5.

Earthquake Activity

City Distance Mag. Time & Date
Minimum magnitude displayed is 2.5.

Coastal Water Temperatures

Place Temperature

Stations

Nearby Weather Stations

Station Location Temp. Windchill Dew Point Humidity Wind Precip. Elev Updated Type
                   

Watches & Warnings

Winter Weather Statement
Issued: 6:23 AM MDT Mar. 24, 2017 – National Weather Service

... Winter Weather Advisory is cancelled...

The National Weather Service in Denver has cancelled the Winter
Weather Advisory.

The storm has shifted to the south and east with decreasing
snowfall over the advisory area. Heavy snowfall is no longer
expected.